Time;durP1;ratioP1;P1;durP2;ratioP2;P2;SDS_P1;SDS_P2;PMS_P1;PMS_P2;Temp;Humidity;BMP_temperature;BMP_pressure;BME280_temperature;BME280_humidity;BME280_pressure;Samples;Min_cycle;Max_cycle;Signal;HPM_P1;HPM_P2
2022/12/29 00:01:35;;;;;;;5.57;5.10;;;-1.10;99.90;;;;;;5045108;28;20460;-76
2022/12/29 00:04:03;;;;;;;4.60;4.13;;;-1.10;99.90;;;;;;5044047;28;20486;-76
2022/12/29 00:06:31;;;;;;;5.30;3.77;;;-1.00;99.90;;;;;;5052676;28;20776;-76
2022/12/29 00:08:59;;;;;;;2.73;2.50;;;-0.90;99.90;;;;;;5056536;28;20857;-76
2022/12/29 00:11:27;;;;;;;2.40;2.20;;;-0.80;99.90;;;;;;5048428;28;21056;-76
2022/12/29 00:16:42;;;;;;;2.30;1.90;;;-0.70;99.90;;;;;;5050635;28;20451;-76
2022/12/29 00:35:07;;;;;;;2.43;2.07;;;-0.70;99.90;;;;;;5051964;28;20526;-76
2022/12/29 00:35:51;;;;;;;2.05;1.65;;;-0.60;99.90;;;;;;5049525;28;20893;-76
2022/12/29 00:44:09;;;;;;;4.73;2.00;;;-0.60;99.90;;;;;;5048642;28;20452;-76
2022/12/29 00:46:38;;;;;;;1.97;1.77;;;-0.60;99.90;;;;;;5049662;28;20464;-76
2022/12/29 00:51:51;;;;;;;2.60;2.20;;;-0.70;99.90;;;;;;5048257;28;20217;-76
2022/12/29 00:54:20;;;;;;;1.60;1.50;;;-0.70;99.90;;;;;;5051087;28;21036;-76
2022/12/29 00:56:48;;;;;;;4.00;1.75;;;-0.60;99.90;;;;;;5048544;28;20482;-76
2022/12/29 00:59:15;;;;;;;3.40;1.87;;;-0.50;99.90;;;;;;5048197;28;20214;-76
2022/12/29 01:01:43;;;;;;;1.90;1.80;;;-0.50;99.90;;;;;;5051053;28;20939;-76
2022/12/29 01:04:10;;;;;;;2.50;2.27;;;-0.50;99.90;;;;;;5057010;28;20201;-76
2022/12/29 01:06:38;;;;;;;2.72;2.53;;;-0.40;99.90;;;;;;5050003;28;20553;-76
2022/12/29 01:11:52;;;;;;;2.05;1.85;;;-0.60;99.90;;;;;;5048130;28;20704;-76
2022/12/29 01:14:20;;;;;;;2.85;1.88;;;-0.60;99.90;;;;;;5050780;28;20203;-76
2022/12/29 01:16:47;;;;;;;2.05;1.25;;;-0.70;99.90;;;;;;5050257;28;20808;-76
2022/12/29 01:19:15;;;;;;;2.20;1.40;;;-0.70;99.90;;;;;;5049071;28;20326;-76
2022/12/29 01:21:43;;;;;;;3.22;2.10;;;-0.80;99.90;;;;;;5046449;28;20285;-76
2022/12/29 01:24:10;;;;;;;1.85;1.60;;;-0.80;99.90;;;;;;5050660;28;20238;-76
2022/12/29 01:26:37;;;;;;;1.83;1.17;;;-0.80;99.90;;;;;;5058121;28;20598;-75
2022/12/29 01:29:06;;;;;;;2.33;1.13;;;-0.80;99.90;;;;;;5045474;28;20482;-75
2022/12/29 01:31:33;;;;;;;2.30;1.00;;;-0.80;99.90;;;;;;5051483;28;20502;-75
2022/12/29 01:34:00;;;;;;;1.63;0.82;;;-0.80;99.90;;;;;;5050686;28;20270;-76
2022/12/29 01:36:27;;;;;;;1.35;1.00;;;-0.70;99.90;;;;;;5056084;28;20213;-76
2022/12/29 01:38:54;;;;;;;1.05;0.60;;;-0.70;99.90;;;;;;5050496;28;20674;-76
2022/12/29 01:41:21;;;;;;;1.03;0.60;;;-0.70;99.90;;;;;;5053901;28;20295;-76
2022/12/29 01:43:49;;;;;;;0.80;0.80;;;-0.60;99.90;;;;;;5051566;28;20534;-76
2022/12/29 01:46:24;;;;;;;0.90;0.70;;;-0.60;99.90;;;;;;5055369;28;20205;-76
2022/12/29 01:48:55;;;;;;;0.70;0.65;;;-0.60;99.90;;;;;;5047683;28;20205;-76
2022/12/29 01:51:25;;;;;;;2.00;0.87;;;-0.50;99.90;;;;;;5049779;28;20212;-76
2022/12/29 01:53:54;;;;;;;0.90;0.60;;;-0.50;99.90;;;;;;5045815;28;20526;-75
2022/12/29 01:56:22;;;;;;;0.90;0.80;;;-0.60;99.90;;;;;;5052384;28;20509;-75
2022/12/29 01:58:54;;;;;;;0.70;0.67;;;-0.70;99.90;;;;;;5046516;28;20580;-75
2022/12/29 02:01:23;;;;;;;0.93;0.83;;;-0.80;99.90;;;;;;5051203;28;20480;-75
2022/12/29 02:03:51;;;;;;;2.03;1.07;;;-0.80;99.90;;;;;;5047013;28;20465;-75
2022/12/29 02:06:23;;;;;;;1.15;1.00;;;-0.90;99.90;;;;;;5048656;28;20453;-75
2022/12/29 02:08:53;;;;;;;2.10;1.17;;;-0.80;99.90;;;;;;5050770;28;20271;-76
2022/12/29 02:11:21;;;;;;;2.03;1.40;;;-0.90;99.90;;;;;;5049689;28;20456;-76
2022/12/29 02:13:48;;;;;;;1.97;1.13;;;-0.90;99.90;;;;;;5052808;28;20578;-76
2022/12/29 02:16:31;;;;;;;1.73;1.20;;;-1.00;99.90;;;;;;5051119;28;20468;-76
2022/12/29 02:19:18;;;;;;;1.40;1.07;;;-1.00;99.90;;;;;;5046339;28;20529;-75
2022/12/29 02:22:08;;;;;;;1.10;0.90;;;-1.00;99.90;;;;;;5047140;28;20452;-76
2022/12/29 02:24:58;;;;;;;2.73;1.10;;;-0.90;99.90;;;;;;5047272;28;20936;-75
2022/12/29 02:28:00;;;;;;;1.80;1.20;;;-0.90;99.90;;;;;;5036593;28;20494;-75
2022/12/29 02:30:46;;;;;;;1.80;1.20;;;-1.00;99.90;;;;;;5023585;28;20596;-75
2022/12/29 02:33:28;;;;;;;1.20;0.80;;;-1.00;99.90;;;;;;5050747;28;20866;-75
2022/12/29 02:36:01;;;;;;;5.03;1.70;;;-1.00;99.90;;;;;;5044527;28;20904;-75
2022/12/29 02:38:38;;;;;;;5.22;1.08;;;-1.00;99.90;;;;;;5048945;28;21147;-75
2022/12/29 02:41:09;;;;;;;13.70;0.90;;;-1.00;99.90;;;;;;5048564;28;20648;-75
2022/12/29 02:43:43;;;;;;;3.20;1.17;;;-1.00;99.90;;;;;;5051350;28;20501;-77
2022/12/29 02:46:18;;;;;;;1.43;0.77;;;-1.00;99.90;;;;;;5061856;28;20822;-78
2022/12/29 02:48:52;;;;;;;1.70;0.87;;;-1.00;99.90;;;;;;5045218;28;20456;-78
2022/12/29 02:51:24;;;;;;;0.60;0.60;;;-1.10;99.90;;;;;;5047607;28;20477;-78
2022/12/29 02:56:36;;;;;;;1.67;1.20;;;-1.10;99.90;;;;;;5024484;28;20431;-75
2022/12/29 02:59:03;;;;;;;1.03;0.93;;;-1.00;99.90;;;;;;5046423;28;20571;-75
2022/12/29 03:02:16;;;;;;;1.30;0.80;;;-1.10;99.90;;;;;;5056577;28;20452;-75
2022/12/29 03:04:39;;;;;;;2.40;1.03;;;-1.10;99.90;;;;;;5047040;28;20443;-78
2022/12/29 03:07:13;;;;;;;1.87;0.80;;;-1.20;99.90;;;;;;5045177;28;20543;-78
2022/12/29 03:09:50;;;;;;;1.23;1.00;;;-1.30;99.90;;;;;;5048487;28;21028;-77
2022/12/29 03:18:14;;;;;;;1.70;1.00;;;-1.30;99.90;;;;;;5050140;28;20942;-78
2022/12/29 03:20:49;;;;;;;0.77;0.77;;;-1.30;99.90;;;;;;5044864;28;20447;-78
2022/12/29 03:23:17;;;;;;;1.67;1.03;;;-1.30;99.90;;;;;;5045194;28;20725;-78
2022/12/29 03:25:49;;;;;;;2.10;1.20;;;-1.30;99.90;;;;;;5045310;28;20502;-78
2022/12/29 03:28:20;;;;;;;1.47;0.97;;;-1.40;99.90;;;;;;5048081;28;20464;-78
2022/12/29 03:30:48;;;;;;;2.03;1.10;;;-1.30;99.90;;;;;;5046063;28;20878;-78
2022/12/29 03:33:20;;;;;;;1.10;0.80;;;-1.40;99.90;;;;;;5050088;28;20498;-78
2022/12/29 03:35:49;;;;;;;1.20;1.00;;;-1.10;99.90;;;;;;5045428;28;20461;-75
2022/12/29 03:38:22;;;;;;;1.37;1.23;;;-1.10;99.90;;;;;;5048974;28;20463;-76
2022/12/29 03:40:53;;;;;;;1.93;1.00;;;-1.00;99.90;;;;;;5045334;28;20456;-76
2022/12/29 03:43:21;;;;;;;1.53;1.07;;;-1.00;99.90;;;;;;5046575;28;20529;-76
2022/12/29 03:45:48;;;;;;;1.00;0.70;;;-0.90;99.90;;;;;;5054201;28;20541;-76
2022/12/29 03:48:17;;;;;;;1.58;0.90;;;-0.80;99.90;;;;;;5050629;28;20916;-76
2022/12/29 03:50:43;;;;;;;1.13;0.90;;;-0.90;99.90;;;;;;5052231;28;20216;-76
2022/12/29 03:53:10;;;;;;;2.27;1.57;;;-1.00;99.90;;;;;;5050708;28;20487;-76
2022/12/29 03:55:37;;;;;;;2.03;1.20;;;-1.10;99.90;;;;;;5049811;28;21081;-76
2022/12/29 03:58:04;;;;;;;4.88;1.20;;;-1.10;99.90;;;;;;5051829;28;20475;-76
2022/12/29 04:00:31;;;;;;;3.03;1.25;;;-1.10;99.90;;;;;;5050213;28;20310;-76
2022/12/29 04:02:58;;;;;;;1.77;1.00;;;-1.10;99.90;;;;;;5046684;28;20522;-76
2022/12/29 04:05:26;;;;;;;1.55;0.85;;;-1.20;99.90;;;;;;5049565;28;20465;-76
2022/12/29 04:07:53;;;;;;;2.03;1.50;;;-1.20;99.90;;;;;;5046947;28;20245;-77
2022/12/29 04:10:20;;;;;;;3.33;1.95;;;-1.20;99.90;;;;;;5052413;28;20303;-78
2022/12/29 04:12:47;;;;;;;3.13;2.67;;;-1.20;99.90;;;;;;5050929;28;20267;-78
2022/12/29 04:15:14;;;;;;;1.67;1.50;;;-1.10;99.90;;;;;;5049763;28;20462;-76
2022/12/29 04:17:41;;;;;;;4.65;3.97;;;-1.10;99.90;;;;;;5052765;28;20264;-75
2022/12/29 04:23:00;;;;;;;3.58;2.25;;;-0.80;99.90;;;;;;5048028;28;20447;-76
2022/12/29 04:25:27;;;;;;;2.50;2.30;;;-1.00;99.90;;;;;;5048301;28;20237;-76
2022/12/29 04:27:54;;;;;;;3.50;2.37;;;-1.10;99.90;;;;;;5051433;28;20511;-78
2022/12/29 04:30:21;;;;;;;2.00;1.70;;;-1.30;99.90;;;;;;5055143;28;20510;-77
2022/12/29 04:32:48;;;;;;;6.77;2.80;;;-1.40;99.90;;;;;;5050437;28;20530;-78
2022/12/29 04:35:15;;;;;;;5.05;3.47;;;-1.40;99.90;;;;;;5049097;28;20453;-78
2022/12/29 04:37:43;;;;;;;6.72;3.88;;;-1.40;99.90;;;;;;5050232;28;20488;-78
2022/12/29 04:40:12;;;;;;;2.43;2.17;;;-1.30;99.90;;;;;;5048220;28;20369;-78
2022/12/29 04:42:39;;;;;;;3.25;2.25;;;-1.30;99.90;;;;;;5047581;28;20524;-78
2022/12/29 04:45:07;;;;;;;4.05;2.92;;;-1.30;99.90;;;;;;5049015;28;20241;-78
2022/12/29 04:47:34;;;;;;;3.83;3.20;;;-1.30;99.90;;;;;;5047514;28;20513;-78
2022/12/29 04:50:01;;;;;;;5.65;3.10;;;-1.30;99.90;;;;;;5047074;28;20567;-78
2022/12/29 04:52:28;;;;;;;7.13;4.88;;;-1.20;99.90;;;;;;5055369;28;20262;-78
2022/12/29 04:54:55;;;;;;;5.70;4.65;;;-1.20;99.90;;;;;;5048374;28;20218;-78
2022/12/29 04:57:23;;;;;;;4.60;4.20;;;-1.20;99.90;;;;;;5050256;28;20216;-78
2022/12/29 04:59:51;;;;;;;5.45;3.55;;;-1.10;99.90;;;;;;5047455;28;20270;-76
2022/12/29 05:02:18;;;;;;;5.68;5.15;;;-1.20;99.90;;;;;;5049169;28;20211;-76
2022/12/29 05:04:45;;;;;;;5.20;4.22;;;-1.20;99.90;;;;;;5057199;28;20201;-76
2022/12/29 05:07:12;;;;;;;5.30;3.80;;;-1.20;99.90;;;;;;5053310;28;20510;-76
2022/12/29 05:09:39;;;;;;;3.58;3.00;;;-1.30;99.90;;;;;;5054074;28;20220;-76
2022/12/29 05:12:07;;;;;;;6.80;4.68;;;-1.30;99.90;;;;;;5053272;28;20265;-76
2022/12/29 05:14:35;;;;;;;7.30;4.93;;;-1.40;99.90;;;;;;5056101;28;20209;-76
2022/12/29 05:17:02;;;;;;;6.65;4.30;;;-1.30;99.90;;;;;;5053789;28;20270;-76
2022/12/29 05:19:29;;;;;;;3.88;3.63;;;-1.20;99.90;;;;;;5049980;28;20362;-78
2022/12/29 05:21:56;;;;;;;3.33;3.03;;;-1.20;99.90;;;;;;5048374;28;20391;-78
2022/12/29 05:24:23;;;;;;;7.18;4.68;;;-1.30;99.90;;;;;;5055212;28;20244;-76
2022/12/29 05:26:50;;;;;;;5.70;4.40;;;-1.40;99.90;;;;;;5056175;28;20203;-76
2022/12/29 05:29:17;;;;;;;5.43;3.83;;;-1.50;99.90;;;;;;5045644;28;20276;-76
2022/12/29 05:31:46;;;;;;;6.20;3.75;;;-1.60;99.90;;;;;;5046334;28;20266;-76
2022/12/29 05:34:13;;;;;;;7.18;3.63;;;-1.70;99.90;;;;;;5054565;28;20200;-76
2022/12/29 05:36:40;;;;;;;3.30;3.00;;;-1.80;99.90;;;;;;5051611;28;20238;-76
2022/12/29 05:39:07;;;;;;;4.53;3.45;;;-1.90;99.90;;;;;;5046881;28;20714;-76
2022/12/29 05:41:35;;;;;;;4.40;3.28;;;-1.80;99.90;;;;;;5047189;28;20520;-76
2022/12/29 05:44:02;;;;;;;4.30;2.80;;;-1.90;99.90;;;;;;5048967;28;20291;-76
2022/12/29 05:46:29;;;;;;;3.00;2.20;;;-1.90;99.90;;;;;;5046820;28;20665;-76
2022/12/29 05:48:57;;;;;;;3.08;2.88;;;-2.00;99.90;;;;;;5048372;28;20232;-76
2022/12/29 05:51:24;;;;;;;4.13;3.70;;;-2.00;99.90;;;;;;5048126;28;20266;-76
2022/12/29 05:53:51;;;;;;;9.15;3.70;;;-2.00;99.90;;;;;;5050482;28;20239;-76
2022/12/29 05:56:18;;;;;;;3.85;3.25;;;-2.00;99.90;;;;;;5048641;28;20263;-78
2022/12/29 05:58:45;;;;;;;4.47;4.07;;;-1.90;99.90;;;;;;5050730;28;20199;-78
2022/12/29 06:01:12;;;;;;;3.92;3.08;;;-1.80;99.90;;;;;;5046395;28;20672;-78
2022/12/29 06:03:39;;;;;;;4.05;3.53;;;-1.90;99.90;;;;;;5052600;28;20594;-78
2022/12/29 06:06:07;;;;;;;4.25;3.20;;;-1.90;99.90;;;;;;5047753;28;20198;-78
2022/12/29 06:08:34;;;;;;;4.80;3.58;;;-1.90;99.90;;;;;;5046201;28;20297;-78
2022/12/29 06:11:01;;;;;;;3.58;2.80;;;-1.90;99.90;;;;;;5046948;28;20212;-78
2022/12/29 06:13:28;;;;;;;4.53;3.92;;;-1.90;99.90;;;;;;5043854;28;20442;-78
2022/12/29 06:15:55;;;;;;;3.88;3.47;;;-1.90;99.90;;;;;;5045150;28;20613;-78
2022/12/29 06:18:22;;;;;;;3.83;3.50;;;-1.80;99.90;;;;;;5049009;28;20209;-78
2022/12/29 06:20:49;;;;;;;5.53;3.30;;;-1.70;99.90;;;;;;5045871;28;20636;-78
2022/12/29 06:23:18;;;;;;;5.95;3.60;;;-1.60;99.90;;;;;;5047589;28;20205;-78
2022/12/29 06:25:45;;;;;;;6.30;3.03;;;-1.50;99.90;;;;;;5046848;28;20208;-78
2022/12/29 06:28:12;;;;;;;4.43;4.03;;;-1.50;99.90;;;;;;5050677;28;21138;-78
2022/12/29 06:30:39;;;;;;;4.32;2.75;;;-1.50;99.90;;;;;;5047537;28;20252;-78
2022/12/29 06:33:08;;;;;;;8.38;4.18;;;-1.50;99.90;;;;;;5055214;28;20291;-78
2022/12/29 06:35:35;;;;;;;4.38;3.83;;;-1.20;99.90;;;;;;5049088;28;20229;-78
2022/12/29 06:38:02;;;;;;;4.60;4.20;;;-1.30;99.90;;;;;;5050929;28;20213;-78
2022/12/29 06:40:30;;;;;;;9.32;5.28;;;-1.40;99.90;;;;;;5051179;28;20224;-78
2022/12/29 06:42:57;;;;;;;4.60;4.00;;;-1.40;99.90;;;;;;5045489;28;20210;-78
2022/12/29 06:45:24;;;;;;;4.65;4.25;;;-1.30;99.90;;;;;;5054683;28;20203;-78
2022/12/29 06:47:51;;;;;;;6.07;5.00;;;-1.30;99.90;;;;;;5053261;28;20209;-78
2022/12/29 06:50:18;;;;;;;13.05;9.68;;;-1.20;99.90;;;;;;5048720;28;20194;-78
2022/12/29 06:52:45;;;;;;;20.30;11.80;;;-1.20;99.90;;;;;;5050146;28;20270;-78
2022/12/29 06:55:11;;;;;;;72.53;36.07;;;-1.20;99.90;;;;;;5045068;28;20492;-78
2022/12/29 06:57:40;;;;;;;12.93;8.48;;;-1.20;99.90;;;;;;5049483;28;20532;-78
2022/12/29 07:00:08;;;;;;;8.35;5.40;;;-1.00;99.90;;;;;;5049706;28;20257;-77
2022/12/29 07:02:35;;;;;;;9.00;5.90;;;-1.00;99.90;;;;;;5046195;28;20251;-76
2022/12/29 07:05:02;;;;;;;7.90;5.65;;;-0.90;99.90;;;;;;5058249;28;20209;-76
2022/12/29 07:07:29;;;;;;;8.40;5.90;;;-0.80;99.90;;;;;;5050426;28;20212;-76
2022/12/29 07:09:56;;;;;;;8.98;6.80;;;-0.70;99.90;;;;;;5050932;28;20202;-76
2022/12/29 07:12:23;;;;;;;6.57;5.27;;;-0.70;99.90;;;;;;5047873;28;20200;-76
2022/12/29 07:14:51;;;;;;;8.02;6.07;;;-0.70;99.90;;;;;;5049988;28;20471;-76
2022/12/29 07:17:18;;;;;;;4.50;4.10;;;-0.60;99.90;;;;;;5046772;28;20667;-76
2022/12/29 07:19:45;;;;;;;4.90;4.53;;;-0.70;99.90;;;;;;5045290;28;20278;-76
2022/12/29 07:22:12;;;;;;;5.70;5.07;;;-0.60;99.90;;;;;;5052968;28;20269;-76
2022/12/29 07:24:39;;;;;;;4.82;4.30;;;-0.40;99.90;;;;;;5060905;28;20268;-76
2022/12/29 07:27:06;;;;;;;12.88;6.75;;;-0.40;99.90;;;;;;5048032;28;20701;-76
2022/12/29 07:29:33;;;;;;;8.05;7.35;;;-0.30;99.90;;;;;;5052940;28;20223;-76
2022/12/29 07:32:02;;;;;;;9.82;8.93;;;-0.20;99.90;;;;;;5060312;28;20233;-76
2022/12/29 07:34:29;;;;;;;13.80;11.52;;;-0.10;99.90;;;;;;5056895;28;20291;-76
2022/12/29 07:36:56;;;;;;;16.98;12.63;;;-0.10;99.90;;;;;;5051963;28;20314;-76
2022/12/29 07:39:23;;;;;;;10.25;7.07;;;-0.10;99.90;;;;;;5049571;28;20234;-76
2022/12/29 07:41:50;;;;;;;7.68;5.90;;;-0.20;99.90;;;;;;5051591;28;20715;-75
2022/12/29 07:44:17;;;;;;;7.20;5.80;;;-0.20;99.90;;;;;;5061862;28;20344;-75
2022/12/29 07:46:44;;;;;;;6.50;5.90;;;-0.20;99.90;;;;;;5052016;28;20209;-75
2022/12/29 07:49:12;;;;;;;7.68;6.28;;;-0.10;99.90;;;;;;5059027;28;20238;-76
2022/12/29 07:51:39;;;;;;;5.63;5.00;;;-0.10;99.90;;;;;;5054282;28;20220;-75
2022/12/29 07:54:06;;;;;;;7.75;6.90;;;-0.20;99.90;;;;;;5047591;28;20209;-76
2022/12/29 07:56:33;;;;;;;6.22;5.63;;;-0.20;99.90;;;;;;5052633;28;20201;-76
2022/12/29 07:59:00;;;;;;;9.20;8.13;;;-0.20;99.90;;;;;;5058313;28;20197;-76
2022/12/29 08:01:26;;;;;;;7.50;6.53;;;-0.10;99.90;;;;;;5051843;28;20303;-76
2022/12/29 08:03:53;;;;;;;7.20;5.93;;;-0.10;99.90;;;;;;5056798;28;20890;-76
2022/12/29 08:06:22;;;;;;;7.72;7.03;;;-0.10;99.90;;;;;;5058028;28;20455;-75
2022/12/29 08:08:49;;;;;;;8.23;7.35;;;-0.10;99.90;;;;;;5050250;28;20217;-76
2022/12/29 08:11:16;;;;;;;14.80;7.80;;;0.10;99.90;;;;;;5048404;28;20635;-76
2022/12/29 08:13:43;;;;;;;9.45;7.07;;;0.10;99.90;;;;;;5051593;28;20463;-76
2022/12/29 08:16:09;;;;;;;7.03;6.30;;;0.20;99.90;;;;;;5047902;28;20206;-76
2022/12/29 08:18:37;;;;;;;7.57;6.90;;;0.30;99.90;;;;;;5053305;28;20706;-76
2022/12/29 08:21:04;;;;;;;11.80;10.80;;;0.50;99.90;;;;;;5053882;28;21006;-76
2022/12/29 08:23:33;;;;;;;11.33;9.63;;;0.70;99.90;;;;;;5052942;28;20470;-75
2022/12/29 08:26:01;;;;;;;6.60;6.00;;;0.70;99.90;;;;;;5051564;28;20924;-75
2022/12/29 08:28:28;;;;;;;7.90;7.13;;;0.90;99.90;;;;;;5056730;28;20466;-75
2022/12/29 08:30:57;;;;;;;6.67;6.00;;;1.00;99.90;;;;;;5058044;28;20479;-76
2022/12/29 08:33:24;;;;;;;7.20;6.50;;;1.10;99.90;;;;;;5052063;28;20464;-75
2022/12/29 08:35:51;;;;;;;16.73;14.43;;;1.20;99.90;;;;;;5052729;28;20546;-75
2022/12/29 08:38:18;;;;;;;12.23;10.43;;;1.40;99.90;;;;;;5055312;28;20460;-75
2022/12/29 08:40:46;;;;;;;9.27;8.33;;;1.60;99.90;;;;;;5059077;28;20563;-76
2022/12/29 08:43:14;;;;;;;9.10;8.20;;;1.50;99.90;;;;;;5049347;28;20463;-75
2022/12/29 08:45:41;;;;;;;10.33;8.30;;;1.20;99.90;;;;;;5051938;28;20466;-76
2022/12/29 08:48:08;;;;;;;7.70;6.90;;;1.20;99.90;;;;;;5053409;28;20521;-76
2022/12/29 08:50:35;;;;;;;8.10;7.30;;;1.10;99.90;;;;;;5053225;28;20524;-76
2022/12/29 08:53:02;;;;;;;10.70;7.60;;;1.10;99.90;;;;;;5054541;28;20726;-76
2022/12/29 08:55:29;;;;;;;10.27;7.37;;;1.10;99.90;;;;;;5056317;28;20526;-76
2022/12/29 08:57:57;;;;;;;6.90;6.17;;;1.10;99.90;;;;;;5061041;28;21063;-76
2022/12/29 09:00:25;;;;;;;7.30;6.20;;;1.20;99.90;;;;;;5050423;28;20551;-76
2022/12/29 09:02:52;;;;;;;9.77;6.77;;;1.40;99.90;;;;;;5053738;28;20505;-76
2022/12/29 09:05:19;;;;;;;9.80;8.90;;;1.50;99.90;;;;;;5050246;28;21029;-76
2022/12/29 09:07:46;;;;;;;6.30;5.57;;;1.50;99.90;;;;;;5051903;28;20198;-76
2022/12/29 09:10:13;;;;;;;6.73;6.00;;;1.70;99.90;;;;;;5056355;28;20507;-76
2022/12/29 09:12:40;;;;;;;6.87;6.17;;;1.90;99.90;;;;;;5055066;28;20513;-76
2022/12/29 09:15:09;;;;;;;9.13;6.43;;;1.90;99.90;;;;;;5051052;28;20464;-76
2022/12/29 09:17:44;;;;;;;11.40;6.70;;;1.90;99.90;;;;;;5055198;28;20468;-76
2022/12/29 09:20:12;;;;;;;22.80;12.40;;;2.10;99.90;;;;;;5055054;28;20455;-76
2022/12/29 09:22:39;;;;;;;7.80;5.80;;;2.20;99.90;;;;;;5051684;28;20448;-76
2022/12/29 09:25:06;;;;;;;7.57;6.10;;;2.40;99.90;;;;;;5056873;28;20502;-74
2022/12/29 09:27:34;;;;;;;7.40;6.40;;;2.40;99.90;;;;;;5051252;28;20510;-76
2022/12/29 09:30:01;;;;;;;13.33;8.53;;;2.50;99.90;;;;;;5049635;28;20511;-76
2022/12/29 09:32:29;;;;;;;8.10;6.60;;;2.80;99.90;;;;;;5058218;28;20493;-76
2022/12/29 09:34:56;;;;;;;6.40;5.10;;;3.00;99.90;;;;;;5053045;28;20461;-76
2022/12/29 09:37:23;;;;;;;3.47;3.17;;;3.10;99.90;;;;;;5054544;28;20529;-76
2022/12/29 09:39:50;;;;;;;3.87;3.60;;;3.30;99.90;;;;;;5054433;28;20479;-77
2022/12/29 09:42:22;;;;;;;4.53;4.10;;;3.50;99.90;;;;;;5052689;28;20561;-77
2022/12/29 09:44:57;;;;;;;3.87;3.17;;;3.70;99.90;;;;;;5050415;28;20572;-77
2022/12/29 09:47:26;;;;;;;3.50;2.90;;;3.80;99.90;;;;;;5047230;28;22240;-77
2022/12/29 09:49:57;;;;;;;3.10;2.80;;;4.00;99.90;;;;;;5066881;28;20456;-77
2022/12/29 09:52:29;;;;;;;21.67;9.63;;;4.10;99.90;;;;;;5051051;28;20498;-77
2022/12/29 09:54:58;;;;;;;10.50;7.67;;;4.10;99.90;;;;;;5056405;28;20470;-77
2022/12/29 09:57:28;;;;;;;4.07;3.67;;;4.20;99.90;;;;;;5050512;28;20491;-77
2022/12/29 10:00:00;;;;;;;21.90;12.20;;;4.20;99.90;;;;;;5054463;28;20910;-77
2022/12/29 10:02:38;;;;;;;20.27;12.43;;;4.10;99.90;;;;;;5050908;28;20483;-77
2022/12/29 10:05:30;;;;;;;10.23;6.57;;;4.20;99.90;;;;;;5047354;28;20467;-77
2022/12/29 10:08:17;;;;;;;7.30;4.87;;;4.20;99.90;;;;;;5056811;28;20904;-77
2022/12/29 10:10:51;;;;;;;12.90;7.73;;;4.10;99.90;;;;;;5056695;28;20532;-77
2022/12/29 10:13:32;;;;;;;6.47;5.87;;;4.20;99.90;;;;;;5052050;28;20470;-76
2022/12/29 10:16:05;;;;;;;19.67;11.17;;;4.20;99.90;;;;;;5053699;28;20987;-76
2022/12/29 10:19:00;;;;;;;22.23;10.70;;;4.40;99.90;;;;;;5054180;28;20451;-75
2022/12/29 10:21:40;;;;;;;8.90;5.70;;;4.70;99.90;;;;;;5044434;28;20571;-76
2022/12/29 10:24:11;;;;;;;8.63;7.73;;;4.90;99.90;;;;;;5044538;28;20456;-77
2022/12/29 10:26:41;;;;;;;6.13;5.53;;;4.70;99.90;;;;;;5055264;28;20463;-78
2022/12/29 10:29:15;;;;;;;7.07;6.37;;;4.70;99.90;;;;;;5052950;28;20468;-78
2022/12/29 10:31:45;;;;;;;8.53;5.93;;;4.80;99.90;;;;;;5058821;28;20572;-76
2022/12/29 10:34:19;;;;;;;7.97;5.43;;;4.50;99.90;;;;;;5049640;28;20456;-76
2022/12/29 10:36:50;;;;;;;5.17;4.67;;;4.60;99.90;;;;;;5053358;28;20553;-76
2022/12/29 10:39:22;;;;;;;6.10;5.60;;;4.60;99.90;;;;;;5047135;28;20468;-76
2022/12/29 10:41:52;;;;;;;5.50;5.10;;;4.40;99.90;;;;;;5054651;28;20546;-76
2022/12/29 10:44:20;;;;;;;5.33;4.80;;;4.50;99.90;;;;;;5048793;28;20507;-79
2022/12/29 10:46:55;;;;;;;6.70;6.07;;;4.60;99.90;;;;;;5048664;28;20461;-77
2022/12/29 10:49:22;;;;;;;6.70;5.27;;;4.50;99.90;;;;;;5047584;28;20443;-76
2022/12/29 10:51:52;;;;;;;6.93;5.90;;;4.50;99.90;;;;;;5046747;28;20491;-76
2022/12/29 10:54:24;;;;;;;5.67;5.07;;;4.50;99.90;;;;;;5046775;28;20690;-76
2022/12/29 10:56:54;;;;;;;5.47;4.93;;;4.30;99.90;;;;;;5050776;28;20465;-76
2022/12/29 10:59:24;;;;;;;4.77;4.40;;;4.40;99.90;;;;;;5052841;28;20461;-76
2022/12/29 11:02:00;;;;;;;11.30;6.87;;;4.30;99.90;;;;;;5055319;28;20558;-76
2022/12/29 11:04:44;;;;;;;7.43;5.00;;;4.20;99.90;;;;;;5049718;28;20494;-76
2022/12/29 11:07:13;;;;;;;4.87;4.47;;;4.20;99.90;;;;;;5049485;28;20444;-77
2022/12/29 11:09:41;;;;;;;4.70;4.30;;;4.00;99.90;;;;;;5048269;28;20449;-77
2022/12/29 11:12:25;;;;;;;4.50;3.77;;;4.00;99.90;;;;;;5052533;28;20452;-77
2022/12/29 11:15:12;;;;;;;3.60;3.30;;;3.90;99.90;;;;;;5046852;28;20468;-76
2022/12/29 11:17:45;;;;;;;3.80;3.50;;;4.00;99.90;;;;;;5047845;28;20546;-77
2022/12/29 11:20:37;;;;;;;3.83;3.50;;;4.00;99.90;;;;;;5047036;28;20508;-77
2022/12/29 11:23:26;;;;;;;6.13;3.10;;;4.00;99.90;;;;;;5031557;28;20500;-77
2022/12/29 11:26:14;;;;;;;7.40;5.20;;;4.00;99.90;;;;;;5053287;28;20475;-77
2022/12/29 11:28:43;;;;;;;3.70;3.40;;;4.10;99.90;;;;;;5048862;28;20851;-77
2022/12/29 11:31:11;;;;;;;5.10;4.15;;;4.20;99.90;;;;;;5044840;28;20488;-78
2022/12/29 11:33:39;;;;;;;4.40;4.00;;;4.30;99.90;;;;;;5050006;28;20209;-77
2022/12/29 11:36:11;;;;;;;4.55;4.10;;;4.30;99.90;;;;;;5045054;28;20576;-77
2022/12/29 11:38:41;;;;;;;5.40;4.73;;;4.40;99.90;;;;;;5054309;28;20209;-77
2022/12/29 11:41:13;;;;;;;4.17;3.80;;;4.50;99.90;;;;;;5049813;28;20511;-77
2022/12/29 11:43:44;;;;;;;7.20;3.43;;;4.70;99.90;;;;;;5052180;28;20551;-77
2022/12/29 11:46:18;;;;;;;3.77;3.40;;;4.70;99.90;;;;;;5056317;28;20525;-75
2022/12/29 11:48:47;;;;;;;4.50;3.97;;;4.80;99.90;;;;;;5057512;28;20468;-77
2022/12/29 11:51:22;;;;;;;4.10;3.77;;;5.00;99.90;;;;;;5053697;28;20456;-77
2022/12/29 11:53:52;;;;;;;4.17;3.77;;;5.00;99.90;;;;;;5053002;28;20464;-77
2022/12/29 11:56:23;;;;;;;4.10;3.70;;;5.30;99.90;;;;;;5055699;28;20467;-78
2022/12/29 11:58:53;;;;;;;3.20;2.90;;;5.30;99.90;;;;;;5069598;28;20555;-78
2022/12/29 12:01:25;;;;;;;3.23;2.93;;;5.60;99.90;;;;;;5050412;28;20519;-78
2022/12/29 12:04:01;;;;;;;3.40;3.10;;;5.80;99.90;;;;;;5054718;28;20494;-78
2022/12/29 12:06:29;;;;;;;2.90;2.37;;;5.80;99.90;;;;;;5055902;28;20541;-78
2022/12/29 12:09:04;;;;;;;3.93;2.87;;;5.70;99.90;;;;;;5056736;28;20513;-77
2022/12/29 12:11:37;;;;;;;3.87;2.60;;;5.80;99.90;;;;;;5050874;28;20453;-78
2022/12/29 12:14:12;;;;;;;4.83;4.27;;;5.90;99.90;;;;;;5055223;28;20556;-77
2022/12/29 12:16:43;;;;;;;6.90;5.00;;;5.90;99.90;;;;;;5060011;28;20512;-78
2022/12/29 12:19:21;;;;;;;5.33;4.40;;;5.80;99.90;;;;;;5062525;28;20547;-78
2022/12/29 12:21:55;;;;;;;3.87;3.40;;;6.10;99.90;;;;;;5049107;28;20480;-77
2022/12/29 12:24:37;;;;;;;5.17;3.90;;;6.40;99.90;;;;;;5051263;28;20526;-78
2022/12/29 12:27:13;;;;;;;3.67;3.37;;;6.70;99.90;;;;;;5051765;28;20548;-78
2022/12/29 12:29:47;;;;;;;4.37;3.43;;;6.80;99.90;;;;;;5060420;28;20992;-78
2022/12/29 12:32:21;;;;;;;3.90;3.60;;;7.00;99.90;;;;;;5050397;28;20514;-78
2022/12/29 12:34:49;;;;;;;5.47;3.90;;;7.00;99.90;;;;;;5057501;28;20468;-80
2022/12/29 12:37:40;;;;;;;7.17;5.27;;;7.00;99.90;;;;;;5049742;28;20968;-82
2022/12/29 12:40:49;;;;;;;3.97;3.60;;;6.90;99.90;;;;;;5062630;28;20453;-78
2022/12/29 12:43:37;;;;;;;2.90;2.05;;;7.20;99.90;;;;;;5021350;28;20230;-78
2022/12/29 12:46:20;;;;;;;2.53;2.10;;;7.40;99.90;;;;;;5048133;28;20205;-80
2022/12/29 12:49:11;;;;;;;3.43;2.10;;;7.40;99.90;;;;;;5052101;28;20458;-80
2022/12/29 12:51:46;;;;;;;5.23;3.70;;;7.50;99.90;;;;;;5054526;28;21195;-80
2022/12/29 12:54:31;;;;;;;3.53;3.23;;;7.60;99.90;;;;;;5054782;28;20460;-80
2022/12/29 12:57:07;;;;;;;3.47;2.60;;;7.80;99.90;;;;;;5053753;28;20517;-80
2022/12/29 12:59:46;;;;;;;2.90;2.60;;;7.90;99.90;;;;;;5055805;28;20456;-79
2022/12/29 13:02:30;;;;;;;4.60;3.60;;;8.00;99.90;;;;;;5058156;28;21033;-77
2022/12/29 13:05:21;;;;;;;3.43;2.13;;;8.00;99.90;;;;;;5054063;28;21025;-78
2022/12/29 13:07:58;;;;;;;2.17;1.10;;;7.50;99.90;;;;;;5049014;28;20460;-80
2022/12/29 13:10:33;;;;;;;3.23;2.30;;;7.20;99.90;;;;;;5052295;28;20498;-80
2022/12/29 13:13:26;;;;;;;4.47;3.23;;;7.20;99.90;;;;;;5050892;28;20568;-78
2022/12/29 13:16:04;;;;;;;9.00;4.10;;;7.20;99.90;;;;;;5057206;28;20457;-78
2022/12/29 13:18:38;;;;;;;3.78;2.40;;;7.10;99.90;;;;;;5047093;28;20921;-78
2022/12/29 13:21:13;;;;;;;3.47;2.50;;;7.10;99.90;;;;;;5056155;28;20207;-79
2022/12/29 13:23:48;;;;;;;2.47;2.03;;;7.00;99.90;;;;;;5057005;28;20636;-79
2022/12/29 13:26:21;;;;;;;4.80;3.03;;;6.80;99.90;;;;;;5051516;28;20463;-78
2022/12/29 13:28:56;;;;;;;4.97;3.27;;;6.80;99.90;;;;;;5060768;28;20529;-78
2022/12/29 13:31:34;;;;;;;5.70;3.40;;;6.70;99.90;;;;;;5051540;28;20563;-78
2022/12/29 13:34:09;;;;;;;4.13;2.90;;;6.60;99.90;;;;;;5061316;28;20452;-78
2022/12/29 13:36:42;;;;;;;8.67;3.47;;;6.50;99.90;;;;;;5056030;28;20529;-78
2022/12/29 13:39:16;;;;;;;5.03;3.23;;;6.60;99.90;;;;;;5057202;28;20448;-78
2022/12/29 13:41:48;;;;;;;3.17;2.87;;;6.60;99.90;;;;;;5056015;28;20489;-78
2022/12/29 13:44:24;;;;;;;2.77;2.53;;;6.50;99.90;;;;;;5053910;28;21086;-78
2022/12/29 13:46:55;;;;;;;3.38;2.20;;;6.50;99.90;;;;;;5053131;28;20468;-78
2022/12/29 13:49:24;;;;;;;3.40;3.10;;;6.50;99.90;;;;;;5050821;28;20207;-78